createdAt,value
2018-05-31T00:00:52.281Z,18.9
2018-05-31T00:02:14.656Z,18.8
2018-05-31T00:03:37.053Z,18.7
2018-05-31T00:05:01.976Z,18.9
2018-05-31T00:06:26.880Z,18.8
2018-05-31T00:07:46.740Z,18.7
2018-05-31T00:09:17.240Z,18.7
2018-05-31T00:10:39.628Z,18.7
2018-05-31T00:12:02.014Z,18.9
2018-05-31T00:13:21.881Z,19
2018-05-31T00:14:42.160Z,19
2018-05-31T00:16:04.527Z,19
2018-05-31T00:17:24.429Z,18.9
2018-05-31T00:18:46.805Z,19
2018-05-31T00:20:06.641Z,19
2018-05-31T00:21:27.021Z,19
2018-05-31T00:22:54.440Z,18.9
2018-05-31T00:24:14.305Z,19
2018-05-31T00:25:34.194Z,19
2018-05-31T00:26:54.101Z,19
2018-05-31T00:28:19.659Z,18.9
2018-05-31T00:29:42.047Z,18.9
2018-05-31T00:31:01.904Z,19
2018-05-31T00:32:29.366Z,19
2018-05-31T00:33:54.527Z,19
2018-05-31T00:35:19.378Z,19
2018-05-31T00:36:41.802Z,19
2018-05-31T00:38:01.672Z,19
2018-05-31T00:39:21.559Z,19
2018-05-31T00:40:48.993Z,19
2018-05-31T00:42:08.869Z,19
2018-05-31T00:43:31.275Z,19
2018-05-31T00:44:51.149Z,19.1
2018-05-31T00:46:13.900Z,18.7
2018-05-31T00:47:36.299Z,19
2018-05-31T00:48:58.745Z,18.9
2018-05-31T00:50:18.587Z,18.8
2018-05-31T00:51:43.505Z,18.9
2018-05-31T00:53:05.891Z,18.9
2018-05-31T00:54:25.722Z,19
2018-05-31T00:55:45.569Z,19
2018-05-31T00:57:05.430Z,19
2018-05-31T00:58:30.382Z,18.9
2018-05-31T00:59:50.259Z,19
2018-05-31T01:01:12.613Z,19
2018-05-31T01:02:32.444Z,18.9
2018-05-31T01:03:52.293Z,18.9
2018-05-31T01:05:15.308Z,18.8
2018-05-31T01:06:40.265Z,18.8
2018-05-31T01:08:00.120Z,19
2018-05-31T01:09:32.648Z,18.9
2018-05-31T01:10:52.768Z,18.8
2018-05-31T01:12:15.155Z,18.8
2018-05-31T01:13:35.066Z,18.8
2018-05-31T01:14:54.931Z,18.8
2018-05-31T01:16:17.312Z,18.8
2018-05-31T01:17:37.236Z,18.8
2018-05-31T01:18:57.065Z,18.9
2018-05-31T01:20:22.007Z,18.9
2018-05-31T01:21:46.891Z,18.9
2018-05-31T01:23:09.254Z,18.9
2018-05-31T01:24:29.148Z,18.9
2018-05-31T01:25:54.036Z,18.9
2018-05-31T01:27:16.399Z,18.9
2018-05-31T01:28:43.876Z,18.8
2018-05-31T01:30:03.716Z,18.9
2018-05-31T01:31:23.574Z,18.8
2018-05-31T01:32:45.961Z,18.8
2018-05-31T01:34:08.324Z,18.8
2018-05-31T01:35:28.190Z,18.8
2018-05-31T01:36:48.015Z,18.9
2018-05-31T01:38:07.842Z,18.8
2018-05-31T01:39:27.723Z,18.8
2018-05-31T01:40:47.559Z,18.9
2018-05-31T01:42:17.533Z,18.9
2018-05-31T01:43:37.395Z,18.9
2018-05-31T01:45:07.358Z,18.9
2018-05-31T01:46:34.849Z,18.9
2018-05-31T01:48:05.430Z,18.9
2018-05-31T01:49:32.863Z,19
2018-05-31T01:51:00.305Z,18.9
2018-05-31T01:52:20.779Z,18.9
2018-05-31T01:53:43.167Z,18.9
2018-05-31T01:55:13.126Z,18.9
2018-05-31T01:56:38.014Z,18.9
2018-05-31T01:57:58.482Z,18.7
2018-05-31T01:59:20.858Z,18.8
2018-05-31T02:00:40.715Z,18.6
2018-05-31T02:02:00.617Z,18.6
2018-05-31T02:03:20.442Z,18.9
2018-05-31T02:04:45.337Z,18.9
2018-05-31T02:06:05.194Z,18.8
2018-05-31T02:07:25.120Z,18.9
2018-05-31T02:08:44.976Z,18.9
2018-05-31T02:10:04.841Z,18.8
2018-05-31T02:11:24.981Z,18.9
2018-05-31T02:12:49.918Z,18.8
2018-05-31T02:14:09.798Z,18.9
2018-05-31T02:15:32.164Z,18.7
2018-05-31T02:16:54.560Z,18.8
2018-05-31T02:18:14.917Z,18.9
2018-05-31T02:19:34.773Z,18.9
2018-05-31T02:20:54.686Z,19
2018-05-31T02:22:19.622Z,19.2
2018-05-31T02:23:39.530Z,18.4
2018-05-31T02:24:59.449Z,18.1
2018-05-31T02:26:19.327Z,18.1
2018-05-31T02:27:39.178Z,18.6
2018-05-31T02:28:59.045Z,18.7
2018-05-31T02:30:18.930Z,18.5
2018-05-31T02:31:41.801Z,18.4
2018-05-31T02:33:04.176Z,18.5
2018-05-31T02:34:24.053Z,18.3
2018-05-31T02:35:43.913Z,18
2018-05-31T02:37:03.782Z,17.9
2018-05-31T02:38:24.242Z,18
2018-05-31T02:39:44.092Z,18.7
2018-05-31T02:41:03.981Z,17.9
2018-05-31T02:42:23.874Z,19.9
2018-05-31T02:43:43.705Z,19.8
2018-05-31T02:45:23.816Z,19.8
2018-05-31T02:46:46.209Z,19.8
2018-05-31T02:48:06.041Z,19.7
2018-05-31T02:49:25.924Z,19.6
2018-05-31T02:50:51.343Z,19.5
2018-05-31T02:52:23.808Z,19.4
2018-05-31T02:53:43.688Z,19.4
2018-05-31T02:55:03.527Z,19.3
2018-05-31T02:56:34.014Z,19.2
2018-05-31T02:57:56.418Z,19.4
2018-05-31T02:59:16.254Z,18.9
2018-05-31T03:00:36.083Z,18.2
2018-05-31T03:01:55.957Z,20.1
2018-05-31T03:03:23.411Z,20
2018-05-31T03:04:48.359Z,20.1
2018-05-31T03:06:08.213Z,20.1
2018-05-31T03:07:30.621Z,19.8
2018-05-31T03:09:05.692Z,19.8
2018-05-31T03:10:25.519Z,19.9
2018-05-31T03:11:45.350Z,19.8
2018-05-31T03:13:07.734Z,19.8
2018-05-31T03:14:32.662Z,19.9
2018-05-31T03:15:52.532Z,19.9
2018-05-31T03:17:12.403Z,19.7
2018-05-31T03:18:32.239Z,19.6
2018-05-31T03:19:52.092Z,19.5
2018-05-31T03:21:12.253Z,19.7
2018-05-31T03:22:32.102Z,19.9
2018-05-31T03:23:51.936Z,19.9
2018-05-31T03:25:16.820Z,19.9
2018-05-31T03:26:36.646Z,20
2018-05-31T03:27:56.776Z,19.9
2018-05-31T03:29:16.603Z,19.9
2018-05-31T03:30:36.441Z,19.9
2018-05-31T03:31:56.280Z,19.9
2018-05-31T03:33:18.682Z,19.9
2018-05-31T03:34:41.595Z,19.9
2018-05-31T03:36:01.468Z,19.9
2018-05-31T03:37:21.306Z,19.9
2018-05-31T03:38:41.154Z,20
2018-05-31T03:40:00.988Z,20
2018-05-31T03:41:20.846Z,20
2018-05-31T03:42:43.283Z,20
2018-05-31T03:44:05.639Z,19.9
2018-05-31T03:45:30.543Z,19.8
2018-05-31T03:46:50.419Z,19.9
2018-05-31T03:48:15.901Z,20
2018-05-31T03:49:35.762Z,20
2018-05-31T03:50:55.594Z,20
2018-05-31T03:52:15.435Z,20
2018-05-31T03:53:40.322Z,20
2018-05-31T03:55:02.740Z,20
2018-05-31T03:56:22.605Z,20
2018-05-31T03:57:42.468Z,20
2018-05-31T03:59:04.868Z,20.1
2018-05-31T04:00:24.726Z,20
2018-05-31T04:01:54.725Z,20
2018-05-31T04:03:14.582Z,20
2018-05-31T04:04:34.485Z,20
2018-05-31T04:05:54.353Z,19.9
2018-05-31T04:07:16.728Z,19.9
2018-05-31T04:08:39.133Z,20
2018-05-31T04:10:01.504Z,20
2018-05-31T04:11:31.471Z,19.9
2018-05-31T04:12:51.335Z,19.9
2018-05-31T04:14:11.158Z,19.9
2018-05-31T04:15:38.610Z,19.9
2018-05-31T04:17:01.035Z,19.8
2018-05-31T04:18:23.397Z,19.8
2018-05-31T04:19:45.792Z,19.8
2018-05-31T04:21:13.270Z,19.7
2018-05-31T04:22:33.094Z,19.8
2018-05-31T04:24:00.536Z,19.9
2018-05-31T04:25:20.709Z,19.8
2018-05-31T04:26:40.544Z,19.8
2018-05-31T04:28:02.914Z,19.6
2018-05-31T04:29:22.783Z,18.7
2018-05-31T04:30:50.211Z,18.9
2018-05-31T04:32:12.624Z,17.6
2018-05-31T04:33:35.031Z,20
2018-05-31T04:34:54.886Z,19.8
2018-05-31T04:36:24.850Z,19.7
2018-05-31T04:37:44.685Z,19.7
2018-05-31T04:39:07.045Z,19.6
2018-05-31T04:40:29.438Z,19.6
2018-05-31T04:41:51.816Z,19.5
2018-05-31T04:43:16.765Z,19.2
2018-05-31T04:44:39.205Z,18.7
2018-05-31T04:46:01.562Z,18.7
2018-05-31T04:47:26.498Z,18.8
2018-05-31T04:48:56.464Z,18.8
2018-05-31T04:50:16.287Z,18.8
2018-05-31T04:51:36.163Z,18.7
2018-05-31T04:53:01.095Z,17.3
2018-05-31T04:54:23.476Z,19.6
2018-05-31T04:55:48.860Z,19.6
2018-05-31T04:57:11.276Z,19.7
2018-05-31T04:58:33.671Z,18.3
2018-05-31T04:59:53.511Z,17.7
2018-05-31T05:01:20.980Z,17.9
2018-05-31T05:02:40.816Z,18.4
2018-05-31T05:04:00.663Z,18.1
2018-05-31T05:05:23.081Z,18.5
2018-05-31T05:06:42.917Z,18.4
2018-05-31T05:08:08.362Z,18.3
2018-05-31T05:09:30.817Z,18.3
2018-05-31T05:10:50.707Z,17.5
2018-05-31T05:12:10.550Z,17.7
2018-05-31T05:13:30.377Z,17
2018-05-31T05:14:53.249Z,17.6
2018-05-31T05:16:15.644Z,17.1
2018-05-31T05:17:35.559Z,17
2018-05-31T05:18:55.440Z,16.8
2018-05-31T05:20:17.858Z,17
2018-05-31T05:21:37.697Z,18.1
2018-05-31T05:23:00.078Z,20.2
2018-05-31T05:24:19.919Z,20.2
2018-05-31T05:25:49.919Z,20.2
2018-05-31T05:27:10.190Z,20.2
2018-05-31T05:28:30.033Z,20.3
2018-05-31T05:29:49.922Z,20.4
2018-05-31T05:31:09.749Z,20.4
2018-05-31T05:32:29.652Z,20.3
2018-05-31T05:33:52.072Z,20.4
2018-05-31T05:35:11.946Z,20.4
2018-05-31T05:36:31.785Z,20.3
2018-05-31T05:38:14.410Z,20.4
2018-05-31T05:39:37.341Z,20.4
2018-05-31T05:40:57.176Z,20.4
2018-05-31T05:42:17.018Z,20.4
2018-05-31T05:43:39.437Z,20.4
2018-05-31T05:44:59.292Z,20.4
2018-05-31T05:46:22.319Z,20.4
2018-05-31T05:47:42.162Z,20.4
2018-05-31T05:49:17.243Z,20.4
2018-05-31T05:50:44.741Z,20.4
2018-05-31T05:52:04.611Z,20.5
2018-05-31T05:53:24.440Z,20.5
2018-05-31T05:54:44.337Z,20.4
2018-05-31T05:56:09.312Z,20.4
2018-05-31T05:57:34.232Z,20.5
2018-05-31T05:58:59.158Z,20.3
2018-05-31T06:00:24.102Z,20.3
2018-05-31T06:01:43.979Z,20.2
2018-05-31T06:03:11.424Z,20.3
2018-05-31T06:04:31.264Z,19.5
2018-05-31T06:05:51.117Z,19.5
2018-05-31T06:07:10.999Z,19.6
2018-05-31T06:08:30.841Z,18
2018-05-31T06:09:53.346Z,18.8
2018-05-31T06:11:23.382Z,18.4
2018-05-31T06:12:45.756Z,18.4
2018-05-31T06:14:20.774Z,18.8
2018-05-31T06:15:41.094Z,20.7
2018-05-31T06:17:03.525Z,20.8
2018-05-31T06:18:25.904Z,20.8
2018-05-31T06:19:45.753Z,20.8
2018-05-31T06:21:05.646Z,20.8
2018-05-31T06:22:26.011Z,20.8
2018-05-31T06:23:45.894Z,20.8
2018-05-31T06:25:08.275Z,20.8
2018-05-31T06:26:33.259Z,20.8
2018-05-31T06:27:55.744Z,20.9
2018-05-31T06:29:23.166Z,20.9
2018-05-31T06:30:43.027Z,20.9
2018-05-31T06:32:02.947Z,20.9
2018-05-31T06:33:27.884Z,20.9
2018-05-31T06:34:48.240Z,20.9
2018-05-31T06:36:10.605Z,20.9
2018-05-31T06:37:30.445Z,20.9
2018-05-31T06:38:50.320Z,20.9
2018-05-31T06:40:10.171Z,20.9
2018-05-31T06:41:42.679Z,20.9
2018-05-31T06:43:05.055Z,20.9
2018-05-31T06:44:24.926Z,20.8
2018-05-31T06:45:52.404Z,20.1
2018-05-31T06:47:12.237Z,20.1
2018-05-31T06:48:32.059Z,20.4
2018-05-31T06:49:56.945Z,20.5
2018-05-31T06:51:19.332Z,20.4
2018-05-31T06:52:44.291Z,20.6
2018-05-31T06:54:04.120Z,20.7
2018-05-31T06:55:29.050Z,20.7
2018-05-31T06:56:53.994Z,20.7
2018-05-31T06:58:13.844Z,20.8
2018-05-31T06:59:33.695Z,20.7
2018-05-31T07:01:03.685Z,20.8
2018-05-31T07:02:23.529Z,20.7
2018-05-31T07:03:50.972Z,20
2018-05-31T07:05:15.887Z,21
2018-05-31T07:06:40.772Z,21
2018-05-31T07:08:08.273Z,21
2018-05-31T07:09:28.152Z,21
2018-05-31T07:10:47.991Z,20.9
2018-05-31T07:12:12.921Z,21
2018-05-31T07:13:35.350Z,21
2018-05-31T07:15:10.420Z,21
2018-05-31T07:16:35.309Z,21
2018-05-31T07:18:05.264Z,21
2018-05-31T07:19:25.114Z,21.1
2018-05-31T07:20:47.517Z,21.1
2018-05-31T07:22:07.342Z,21.1
2018-05-31T07:23:34.790Z,21.1
2018-05-31T07:24:57.185Z,21.1
2018-05-31T07:26:17.063Z,21.1
2018-05-31T07:27:36.895Z,21.1
2018-05-31T07:28:59.249Z,21.1
2018-05-31T07:30:21.674Z,21.1
2018-05-31T07:31:41.516Z,21.1
2018-05-31T07:33:06.435Z,21.1
2018-05-31T07:34:36.400Z,21.1
2018-05-31T07:35:56.222Z,21.1
2018-05-31T07:37:23.697Z,21
2018-05-31T07:38:43.558Z,20.2
2018-05-31T07:40:05.966Z,19.9
2018-05-31T07:41:25.792Z,19.8
2018-05-31T07:42:48.196Z,19.7
2018-05-31T07:44:10.565Z,18.1
2018-05-31T07:45:30.423Z,18.5
2018-05-31T07:46:52.810Z,17.8
2018-05-31T07:48:12.663Z,18.5
2018-05-31T07:49:42.676Z,18.6
2018-05-31T07:51:05.081Z,18.6
2018-05-31T07:52:29.962Z,18.8
2018-05-31T07:53:49.797Z,18.8
2018-05-31T07:55:27.394Z,18.7
2018-05-31T07:56:47.270Z,17.7
2018-05-31T07:58:07.135Z,17.8
2018-05-31T07:59:27.087Z,17.9
2018-05-31T08:00:49.447Z,17.8
2018-05-31T08:02:11.807Z,17.9
2018-05-31T08:03:36.729Z,19
2018-05-31T08:04:56.606Z,18.5
2018-05-31T08:06:19.007Z,17.9
2018-05-31T08:07:38.852Z,17.8
2018-05-31T08:08:58.705Z,18.1
2018-05-31T08:10:23.667Z,18
2018-05-31T08:11:51.105Z,18
2018-05-31T08:13:10.933Z,18
2018-05-31T08:14:48.516Z,18
2018-05-31T08:16:10.929Z,18
2018-05-31T08:17:33.312Z,18
2018-05-31T08:18:53.160Z,17.9
2018-05-31T08:20:18.128Z,18
2018-05-31T08:21:43.053Z,17.9
2018-05-31T08:23:15.552Z,18
2018-05-31T08:24:35.425Z,17.9
2018-05-31T08:26:07.936Z,17.4
2018-05-31T08:27:27.781Z,17.5
2018-05-31T08:28:47.666Z,17.4
2018-05-31T08:30:12.564Z,17.2
2018-05-31T08:31:35.091Z,17.3
2018-05-31T08:32:54.984Z,17.4
2018-05-31T08:34:17.353Z,17.4
2018-05-31T08:35:37.174Z,17.5
2018-05-31T08:37:07.127Z,17.7
2018-05-31T08:38:29.523Z,17.8
2018-05-31T08:39:49.379Z,17.9
2018-05-31T08:41:11.789Z,17.9
2018-05-31T08:42:31.633Z,17.8
2018-05-31T08:43:51.505Z,17.8
2018-05-31T08:45:13.858Z,17.9
2018-05-31T08:46:33.730Z,17.7
2018-05-31T08:47:53.602Z,17.8
2018-05-31T08:49:13.462Z,17.9
2018-05-31T08:50:38.427Z,18.1
2018-05-31T08:52:10.900Z,18.1
2018-05-31T08:53:40.887Z,18.2
2018-05-31T08:55:03.264Z,18.1
2018-05-31T08:56:30.708Z,18.1
2018-05-31T08:57:55.634Z,18.4
2018-05-31T08:59:15.455Z,18.5
2018-05-31T09:00:35.281Z,18.4
2018-05-31T09:01:57.719Z,18.4
2018-05-31T09:03:22.632Z,18.4
2018-05-31T09:04:42.516Z,18.3
2018-05-31T09:06:04.918Z,18.4
2018-05-31T09:07:27.281Z,17.4
2018-05-31T09:08:49.640Z,17
2018-05-31T09:10:11.984Z,16.7
2018-05-31T09:11:34.356Z,16.4
2018-05-31T09:12:56.753Z,14.9
2018-05-31T09:14:16.585Z,15.1
2018-05-31T09:15:38.940Z,15.3
2018-05-31T09:17:06.349Z,15.2
2018-05-31T09:18:28.765Z,15.1
2018-05-31T09:19:48.591Z,15
2018-05-31T09:21:08.471Z,19.7
2018-05-31T09:22:28.318Z,19.7
2018-05-31T09:23:48.213Z,19.1
2018-05-31T09:25:13.132Z,19.1
2018-05-31T09:26:35.541Z,18.8
2018-05-31T09:27:55.404Z,21.5
2018-05-31T09:29:15.239Z,21.5
2018-05-31T09:30:35.064Z,21.6
2018-05-31T09:31:54.883Z,21.7
2018-05-31T09:33:14.707Z,21.7
2018-05-31T09:34:37.076Z,21.8
2018-05-31T09:35:59.446Z,21.8
2018-05-31T09:37:21.866Z,21.9
2018-05-31T09:38:46.760Z,21.9
2018-05-31T09:40:09.131Z,21.9
2018-05-31T09:41:28.965Z,21.8
2018-05-31T09:42:53.882Z,21.8
2018-05-31T09:44:13.757Z,21.8
2018-05-31T09:45:48.763Z,21.7
2018-05-31T09:47:08.590Z,21.7
2018-05-31T09:48:28.409Z,21.6
2018-05-31T09:49:58.361Z,21.6
2018-05-31T09:51:18.220Z,21.6
2018-05-31T09:52:38.126Z,21.5
2018-05-31T09:54:00.492Z,21.5
2018-05-31T09:55:20.319Z,21.5
2018-05-31T09:56:40.170Z,20.8
2018-05-31T09:58:00.041Z,21.1
2018-05-31T09:59:19.860Z,21
2018-05-31T10:00:42.207Z,20.9
2018-05-31T10:02:02.081Z,20.9
2018-05-31T10:03:24.486Z,19.6
2018-05-31T10:04:44.328Z,20.4
2018-05-31T10:06:06.693Z,20.2
2018-05-31T10:07:26.564Z,19.7
2018-05-31T10:08:51.452Z,19.6
2018-05-31T10:10:11.325Z,19.8
2018-05-31T10:11:33.700Z,19.7
2018-05-31T10:12:56.093Z,20
2018-05-31T10:14:15.920Z,19.4
2018-05-31T10:15:35.746Z,21.6
2018-05-31T10:16:58.188Z,20.3
2018-05-31T10:18:20.550Z,20
2018-05-31T10:19:40.390Z,20
2018-05-31T10:21:15.400Z,20.8
2018-05-31T10:22:37.787Z,20
2018-05-31T10:23:57.639Z,20.1
2018-05-31T10:25:17.506Z,19.9
2018-05-31T10:26:47.499Z,19.9
2018-05-31T10:28:09.865Z,19.9
2018-05-31T10:29:32.236Z,20
2018-05-31T10:30:52.061Z,20
2018-05-31T10:32:17.006Z,20
2018-05-31T10:33:36.897Z,21.4
2018-05-31T10:35:04.369Z,20.8
2018-05-31T10:36:24.205Z,20.6
2018-05-31T10:38:09.388Z,20.5
2018-05-31T10:39:29.292Z,20.7
2018-05-31T10:40:54.199Z,20.3
2018-05-31T10:42:16.553Z,21
2018-05-31T10:43:41.443Z,21
2018-05-31T10:45:01.268Z,20.9
2018-05-31T10:46:26.177Z,20.4
2018-05-31T10:47:46.061Z,20.4
2018-05-31T10:49:08.413Z,20.4
2018-05-31T10:50:28.236Z,20.4
2018-05-31T10:51:48.090Z,20.8
2018-05-31T10:53:07.998Z,21.1
2018-05-31T10:54:40.494Z,21.1
2018-05-31T10:56:02.882Z,21.1
2018-05-31T10:57:22.733Z,21.1
2018-05-31T10:58:47.694Z,21.1
2018-05-31T11:00:10.096Z,21.1
2018-05-31T11:01:32.482Z,21.1
2018-05-31T11:02:52.334Z,21.1
2018-05-31T11:04:12.195Z,21.1
2018-05-31T11:05:37.096Z,21.1
2018-05-31T11:06:56.923Z,21.1
2018-05-31T11:08:21.899Z,21.1
2018-05-31T11:09:41.774Z,21.1
2018-05-31T11:11:04.137Z,21.1
2018-05-31T11:12:26.492Z,21.1
2018-05-31T11:13:48.884Z,21
2018-05-31T11:15:11.240Z,20.9
2018-05-31T11:16:38.651Z,21
2018-05-31T11:18:03.539Z,20.9
2018-05-31T11:19:25.886Z,20.9
2018-05-31T11:20:45.710Z,20.9
2018-05-31T11:22:10.657Z,20.9
2018-05-31T11:23:35.552Z,20.8
2018-05-31T11:24:55.394Z,20.8
2018-05-31T11:26:15.221Z,20.8
2018-05-31T11:27:37.600Z,20.8
2018-05-31T11:28:57.450Z,20.7
2018-05-31T11:30:19.844Z,20.7
2018-05-31T11:31:39.664Z,20.7
2018-05-31T11:33:04.541Z,20.6
2018-05-31T11:34:24.369Z,20.4
2018-05-31T11:35:49.259Z,20.4
2018-05-31T11:37:16.731Z,20.2
2018-05-31T11:38:36.610Z,20.1
2018-05-31T11:39:56.451Z,20
2018-05-31T11:41:21.390Z,18.2
2018-05-31T11:42:48.850Z,19.1
2018-05-31T11:44:16.276Z,19.1
2018-05-31T11:45:36.142Z,19.1
2018-05-31T11:46:58.516Z,19.6
2018-05-31T11:48:18.349Z,20
2018-05-31T11:49:38.192Z,21.5
2018-05-31T11:51:00.545Z,21.6
2018-05-31T11:52:22.952Z,21.6
2018-05-31T11:53:42.811Z,21.6
2018-05-31T11:55:02.664Z,21.6
2018-05-31T11:56:25.103Z,21.6
2018-05-31T11:57:50.033Z,21.6
2018-05-31T11:59:09.855Z,21.6
2018-05-31T12:00:29.680Z,21.7
2018-05-31T12:01:49.561Z,21.7
2018-05-31T12:03:09.407Z,21.7
2018-05-31T12:04:46.981Z,21.7
2018-05-31T12:06:06.816Z,21.7
2018-05-31T12:07:26.654Z,21.8
2018-05-31T12:08:46.531Z,22
2018-05-31T12:10:06.353Z,22.1
2018-05-31T12:11:26.191Z,22.1
2018-05-31T12:12:46.030Z,22.2
2018-05-31T12:14:05.851Z,22.6
2018-05-31T12:15:28.232Z,22.7
2018-05-31T12:17:23.496Z,24.6
2018-05-31T12:18:56.001Z,25.4
2018-05-31T12:20:15.864Z,25.1
2018-05-31T12:21:35.737Z,25.6
2018-05-31T12:22:58.132Z,25.8
2018-05-31T12:24:23.027Z,25.9
2018-05-31T12:25:45.498Z,25.8
2018-05-31T12:27:05.379Z,25
2018-05-31T12:28:32.822Z,24.4
2018-05-31T12:29:52.699Z,24.1
2018-05-31T12:31:20.174Z,23.8
2018-05-31T12:32:42.548Z,23.7
2018-05-31T12:34:07.489Z,23.7
2018-05-31T12:35:32.395Z,24.1
2018-05-31T12:36:52.254Z,24.3
2018-05-31T12:38:29.833Z,24
2018-05-31T12:39:49.670Z,24
2018-05-31T12:41:09.488Z,23.8
2018-05-31T12:42:31.876Z,23.5
2018-05-31T12:43:56.805Z,23.4
2018-05-31T12:45:19.179Z,23.2
2018-05-31T12:47:06.915Z,23.1
2018-05-31T12:48:26.822Z,23.3
2018-05-31T12:49:49.208Z,23.2
2018-05-31T12:51:14.149Z,23.2
2018-05-31T12:52:39.047Z,23.3
2018-05-31T12:54:01.429Z,23.3
2018-05-31T12:55:21.314Z,23.3
2018-05-31T12:56:46.192Z,23.4
2018-05-31T12:58:16.177Z,23.5
2018-05-31T12:59:43.650Z,23.9
2018-05-31T13:01:03.475Z,24
2018-05-31T13:02:28.403Z,24
2018-05-31T13:03:48.275Z,24.1
2018-05-31T13:05:10.631Z,24.1
2018-05-31T13:06:30.494Z,24.1
2018-05-31T13:07:50.354Z,24.2
2018-05-31T13:09:12.746Z,24
2018-05-31T13:10:35.118Z,24.2
2018-05-31T13:11:54.956Z,24.3
2018-05-31T13:13:14.784Z,24.3
2018-05-31T13:14:37.189Z,24.4
2018-05-31T13:16:09.683Z,24.4
2018-05-31T13:17:34.552Z,24.4
2018-05-31T13:18:54.449Z,24.4
2018-05-31T13:20:19.352Z,24.3
2018-05-31T13:21:39.222Z,24.1
2018-05-31T13:22:59.046Z,23.9
2018-05-31T13:24:18.873Z,23.9
2018-05-31T13:25:38.718Z,23.9
2018-05-31T13:26:58.561Z,23.8
2018-05-31T13:28:20.923Z,23.8
2018-05-31T13:29:40.748Z,23.8
2018-05-31T13:31:00.570Z,23.8
2018-05-31T13:32:20.395Z,23.8
2018-05-31T13:33:40.218Z,23.8
2018-05-31T13:35:05.160Z,23.7
2018-05-31T13:36:27.527Z,23.7
2018-05-31T13:37:47.383Z,23.7
2018-05-31T13:39:07.251Z,23.5
2018-05-31T13:40:29.652Z,23.1
2018-05-31T13:41:49.477Z,23.1
2018-05-31T13:43:11.957Z,22
2018-05-31T13:44:37.000Z,21.5
2018-05-31T13:45:56.870Z,21.7
2018-05-31T13:47:21.781Z,21.7
2018-05-31T13:48:41.634Z,21.7
2018-05-31T13:50:01.485Z,21.6
2018-05-31T13:51:26.387Z,21.2
2018-05-31T13:52:46.236Z,21.3
2018-05-31T13:54:11.169Z,21.5
2018-05-31T13:55:33.521Z,21.7
2018-05-31T13:56:53.347Z,21.9
2018-05-31T13:58:15.719Z,21.8
2018-05-31T13:59:35.553Z,21.8
2018-05-31T14:00:55.403Z,21.8
2018-05-31T14:02:15.217Z,21.8
2018-05-31T14:03:45.186Z,21.7
2018-05-31T14:05:07.591Z,21.7
2018-05-31T14:06:27.439Z,21.7
2018-05-31T14:07:47.326Z,21.7
2018-05-31T14:09:07.179Z,22
2018-05-31T14:10:27.052Z,21.9
2018-05-31T14:11:46.902Z,22
2018-05-31T14:13:06.764Z,22
2018-05-31T14:14:26.645Z,21.9
2018-05-31T14:15:59.164Z,21.9
2018-05-31T14:17:34.183Z,21.8
2018-05-31T14:18:54.005Z,22.9
2018-05-31T14:20:13.822Z,22.9
2018-05-31T14:21:36.184Z,22.9
2018-05-31T14:22:56.052Z,23
2018-05-31T14:24:23.529Z,22.9
2018-05-31T14:25:43.357Z,22.9
2018-05-31T14:27:03.180Z,22.9
2018-05-31T14:28:23.040Z,22.9
2018-05-31T14:29:43.140Z,22.9
2018-05-31T14:31:05.548Z,22.9
2018-05-31T14:32:25.419Z,22.9
2018-05-31T14:33:45.253Z,22.8
2018-05-31T14:35:10.145Z,22.7
2018-05-31T14:36:32.501Z,22.7
2018-05-31T14:37:52.373Z,22.7
2018-05-31T14:39:12.235Z,22.7
2018-05-31T14:40:39.859Z,22.7
2018-05-31T14:42:02.217Z,22.2
2018-05-31T14:43:22.081Z,21.4
2018-05-31T14:44:41.941Z,21.1
2018-05-31T14:46:04.290Z,21.2
2018-05-31T14:47:26.680Z,22.4
2018-05-31T14:48:46.542Z,22.3
2018-05-31T14:50:06.408Z,20.8
2018-05-31T14:51:26.254Z,21.4
2018-05-31T14:52:53.721Z,21
2018-05-31T14:54:18.590Z,22.8
2018-05-31T14:55:43.521Z,23
2018-05-31T14:57:03.355Z,23
2018-05-31T14:58:23.187Z,23
2018-05-31T14:59:43.010Z,22.9
2018-05-31T15:01:18.014Z,22.9
2018-05-31T15:02:45.426Z,22.9
2018-05-31T15:04:05.277Z,22.9
2018-05-31T15:05:25.128Z,22.9
2018-05-31T15:06:52.582Z,22.8
2018-05-31T15:08:14.986Z,22.5
2018-05-31T15:09:34.865Z,22.3
2018-05-31T15:10:54.692Z,22.3
2018-05-31T15:12:17.060Z,22.6
2018-05-31T15:13:41.965Z,22.8
2018-05-31T15:15:01.847Z,22.8
2018-05-31T15:16:26.766Z,22.6
2018-05-31T15:17:46.645Z,22.5
2018-05-31T15:19:09.049Z,22.5
2018-05-31T15:20:28.932Z,22.3
2018-05-31T15:22:03.968Z,22.3
2018-05-31T15:23:23.796Z,22.3
2018-05-31T15:24:58.822Z,22.5
2018-05-31T15:26:21.255Z,22.4
2018-05-31T15:27:41.148Z,22.4
2018-05-31T15:29:00.988Z,22.3
2018-05-31T15:30:25.889Z,22.3
2018-05-31T15:31:50.837Z,22.3
2018-05-31T15:33:23.375Z,22.3
2018-05-31T15:35:00.920Z,22.4
2018-05-31T15:36:20.823Z,22.2
2018-05-31T15:37:48.293Z,22
2018-05-31T15:39:08.172Z,22
2018-05-31T15:40:27.987Z,21.9
2018-05-31T15:41:50.342Z,21.1
2018-05-31T15:43:20.290Z,21.7
2018-05-31T15:44:40.120Z,21.7
2018-05-31T15:46:02.494Z,21.6
2018-05-31T15:47:22.345Z,21.2
2018-05-31T15:48:49.756Z,20.9
2018-05-31T15:50:24.768Z,21
2018-05-31T15:51:44.639Z,21.1
2018-05-31T15:53:04.461Z,21.8
2018-05-31T15:54:24.285Z,21.8
2018-05-31T15:55:44.128Z,21.4
2018-05-31T15:57:03.964Z,21.4
2018-05-31T15:58:23.815Z,21.4
2018-05-31T15:59:43.690Z,21.4
2018-05-31T16:01:03.544Z,21.6
2018-05-31T16:02:28.474Z,21.6
2018-05-31T16:03:50.883Z,22
2018-05-31T16:05:25.928Z,21.9
2018-05-31T16:06:45.755Z,21.9
2018-05-31T16:08:05.618Z,21.9
2018-05-31T16:09:30.511Z,21.9
2018-05-31T16:10:57.927Z,21.9
2018-05-31T16:12:32.928Z,21.9
2018-05-31T16:14:10.530Z,21.9
2018-05-31T16:15:30.381Z,21.9
2018-05-31T16:16:52.724Z,21.7
2018-05-31T16:18:15.076Z,21.7
2018-05-31T16:19:40.015Z,21.7
2018-05-31T16:21:02.371Z,21.7
2018-05-31T16:22:24.788Z,21.6
2018-05-31T16:23:57.320Z,21.7
2018-05-31T16:25:27.310Z,21.7
2018-05-31T16:26:49.657Z,21.7
2018-05-31T16:28:19.655Z,21.6
2018-05-31T16:29:39.542Z,21.5
2018-05-31T16:30:59.423Z,21.4
2018-05-31T16:32:21.782Z,21.4
2018-05-31T16:33:41.686Z,21.3
2018-05-31T16:35:01.576Z,21.3
2018-05-31T16:36:21.485Z,21.3
2018-05-31T16:37:48.904Z,21.3
2018-05-31T16:39:08.736Z,21.3
2018-05-31T16:40:28.605Z,21.2
2018-05-31T16:41:50.998Z,21.2
2018-05-31T16:43:13.408Z,21.2
2018-05-31T16:44:38.322Z,21.2
2018-05-31T16:46:00.706Z,21.2
2018-05-31T16:47:20.526Z,21.1
2018-05-31T16:48:42.931Z,21.2
2018-05-31T16:50:25.515Z,21.1
2018-05-31T16:51:50.449Z,21.2
2018-05-31T16:53:15.336Z,21.2
2018-05-31T16:55:00.480Z,20.8
2018-05-31T16:56:40.608Z,21.3
2018-05-31T16:58:00.468Z,21.3
2018-05-31T16:59:25.410Z,21.3
2018-05-31T17:00:47.850Z,21.2
2018-05-31T17:02:07.698Z,21.2
2018-05-31T17:03:32.586Z,21.2
2018-05-31T17:04:52.420Z,21.2
2018-05-31T17:06:12.315Z,21.2
2018-05-31T17:07:37.193Z,20.2
2018-05-31T17:08:59.594Z,20.1
2018-05-31T17:10:21.957Z,20.9
2018-05-31T17:11:41.785Z,21.1
2018-05-31T17:13:04.133Z,21.1
2018-05-31T17:14:26.519Z,20.7
2018-05-31T17:15:46.396Z,20
2018-05-31T17:17:18.935Z,19.2
2018-05-31T17:18:38.768Z,19.2
2018-05-31T17:20:13.757Z,19
2018-05-31T17:21:43.704Z,18.8
2018-05-31T17:23:03.553Z,19.6
2018-05-31T17:24:23.375Z,17.6
2018-05-31T17:25:43.210Z,17.6
2018-05-31T17:27:03.040Z,18.6
2018-05-31T17:28:25.430Z,16.8
2018-05-31T17:29:50.333Z,19.1
2018-05-31T17:31:10.233Z,18.8
2018-05-31T17:32:30.064Z,19
2018-05-31T17:33:49.941Z,19.2
2018-05-31T17:35:09.773Z,19.3
2018-05-31T17:36:32.117Z,19.6
2018-05-31T17:37:52.011Z,18.6
2018-05-31T17:39:11.839Z,19.6
2018-05-31T17:40:31.666Z,19.7
2018-05-31T17:41:51.489Z,18.3
2018-05-31T17:43:11.353Z,20.5
2018-05-31T17:44:31.219Z,20.1
2018-05-31T17:45:53.581Z,20.2
2018-05-31T17:47:13.464Z,20.2
2018-05-31T17:48:40.922Z,18.6
2018-05-31T17:50:00.811Z,20.1
2018-05-31T17:51:20.699Z,19.8
2018-05-31T17:52:45.604Z,19.8
2018-05-31T17:54:07.963Z,19.8
2018-05-31T17:55:27.777Z,20
2018-05-31T17:56:50.187Z,19.5
2018-05-31T17:58:10.028Z,20
2018-05-31T17:59:32.429Z,17.9
2018-05-31T18:00:52.275Z,19.4
2018-05-31T18:02:22.230Z,19.9
2018-05-31T18:03:42.085Z,19.9
2018-05-31T18:05:01.915Z,19.2
2018-05-31T18:06:26.850Z,19.7
2018-05-31T18:07:46.672Z,19.9
2018-05-31T18:09:14.106Z,20.3
2018-05-31T18:10:41.535Z,19.7
2018-05-31T18:12:01.391Z,19.5
2018-05-31T18:13:23.739Z,19.6
2018-05-31T18:14:46.118Z,19.5
2018-05-31T18:16:21.145Z,18.9
2018-05-31T18:17:41.000Z,18.4
2018-05-31T18:19:03.359Z,17.7
2018-05-31T18:20:23.181Z,18.2
2018-05-31T18:21:50.625Z,17.6
2018-05-31T18:23:10.517Z,17.8
2018-05-31T18:24:48.077Z,16.6
2018-05-31T18:26:20.612Z,17.8
2018-05-31T18:27:40.524Z,17.9
2018-05-31T18:29:02.889Z,17.8
2018-05-31T18:30:22.716Z,18
2018-05-31T18:31:45.069Z,17.2
2018-05-31T18:33:04.952Z,17.3